Woodville, Alabama
Current Conditions -  °F | °C
As of 1:55 PM on Sunday 23 Nov 2014 (Local Time) from K4A6 Reporting Station
Light Rain Light Rain  
Wind Chill: 57°   Ceiling: 1600
Heat Index: 57°   Visibility: 10mi
Dew Point: 54°   Wind: 6mph
Humidity: 88%   Direction: 120°ESE
Pressure: 29.59"   Gusts: NA
Location:  34.63°N, 86.27°W
Report Text: K4A6 231955Z AUTO 12005KT 10SM -RA BKN016 BKN031 14/12 A2959 RMK AO2 P0001
Loading
Personal Weather Stations






























Interactive Weather Map New forecast layout! Learn more

10-Day Weather Forecast

Advertisements
Track Severe Weather on mobile